Time,TemperatureF,DewpointF,PressureIn,WindDirection,WindDirectionDegrees,WindSpeedMPH,WindSpeedGustMPH,Humidity,HourlyPrecipIn,Conditions,Clouds,dailyrainin,SoftwareType,DateUTC
2013-01-06 00:00:00,32.9,7.6,30.24,ESE,107,0.0,0.0,34,0.00,,SKC,0.00,VWS V14.01,2013-01-06 05:00:00,
2013-01-06 00:20:00,32.7,8.1,30.24,ESE,107,0.0,0.0,35,0.00,,SKC,0.00,VWS V14.01,2013-01-06 05:20:00,
2013-01-06 00:40:00,32.7,9.9,30.24,NW,324,0.0,5.4,38,0.00,,SKC,0.00,VWS V14.01,2013-01-06 05:40:00,
2013-01-06 01:00:00,33.1,11.4,30.24,SW,219,3.1,8.3,40,0.00,,SKC,0.00,VWS V14.01,2013-01-06 06:00:00,
2013-01-06 01:20:00,34.5,8.4,30.21,WNW,299,3.1,9.6,33,0.00,,SKC,0.00,VWS V14.01,2013-01-06 06:20:00,
2013-01-06 01:40:00,34.9,6.6,30.21,West,261,5.8,10.5,30,0.00,,SKC,0.00,VWS V14.01,2013-01-06 06:40:00,
2013-01-06 02:00:00,35.1,6.8,30.21,WNW,288,8.1,9.6,30,0.00,,SKC,0.00,VWS V14.01,2013-01-06 07:00:00,
2013-01-06 02:20:00,34.5,6.3,30.21,West,268,2.2,11.0,30,0.00,,SKC,0.00,VWS V14.01,2013-01-06 07:20:00,
2013-01-06 02:40:00,33.8,5.7,30.21,WSW,253,5.4,10.1,30,0.00,,SKC,0.00,VWS V14.01,2013-01-06 07:40:00,
2013-01-06 03:00:00,33.6,6.2,30.21,West,281,3.1,8.7,31,0.00,,SKC,0.00,VWS V14.01,2013-01-06 08:00:00,
2013-01-06 03:20:00,32.9,5.6,30.21,WNW,286,4.9,8.7,31,0.00,,SKC,0.00,VWS V14.01,2013-01-06 08:20:00,
2013-01-06 03:40:00,32.5,5.3,30.21,WNW,286,0.0,8.3,31,0.00,,SKC,0.00,VWS V14.01,2013-01-06 08:40:00,
2013-01-06 04:00:00,32.4,5.8,30.18,WNW,286,0.0,0.0,32,0.00,,SKC,0.00,VWS V14.01,2013-01-06 09:00:00,
2013-01-06 04:20:00,31.6,5.2,30.21,WNW,286,0.0,0.0,32,0.00,,SKC,0.00,VWS V14.01,2013-01-06 09:20:00,
2013-01-06 04:40:00,30.6,4.9,30.18,WNW,286,0.0,0.0,33,0.00,,SKC,0.00,VWS V14.01,2013-01-06 09:40:00,
2013-01-06 05:00:00,29.5,4.6,30.18,WSW,258,5.4,5.4,34,0.00,,SKC,0.00,VWS V14.01,2013-01-06 10:00:00,
2013-01-06 05:20:00,29.7,6.6,30.18,WNW,286,3.6,8.3,37,0.00,,SKC,0.00,VWS V14.01,2013-01-06 10:20:00,
2013-01-06 05:40:00,32.5,12.0,30.18,SW,217,4.0,8.3,42,0.00,,SKC,0.00,VWS V14.01,2013-01-06 10:40:00,
2013-01-06 06:00:00,33.3,12.7,30.18,WNW,291,2.7,8.1,42,0.00,,SKC,0.00,VWS V14.01,2013-01-06 11:00:00,
2013-01-06 06:20:00,33.3,13.2,30.18,WNW,291,4.0,11.0,43,0.00,,SKC,0.00,VWS V14.01,2013-01-06 11:20:00,
2013-01-06 06:40:00,32.4,11.9,30.18,West,271,2.7,6.3,42,0.00,,SKC,0.00,VWS V14.01,2013-01-06 11:40:00,
2013-01-06 07:00:00,31.6,11.7,30.18,WNW,288,4.0,8.1,43,0.00,,SKC,0.00,VWS V14.01,2013-01-06 12:00:00,
2013-01-06 07:20:00,30.7,11.4,30.18,NW,313,4.0,8.3,44,0.00,,SKC,0.00,VWS V14.01,2013-01-06 12:20:00,
2013-01-06 07:40:00,29.8,11.1,30.18,SW,227,0.0,5.8,45,0.00,,SKC,0.00,VWS V14.01,2013-01-06 12:40:00,
2013-01-06 08:00:00,30.2,13.4,30.18,West,272,3.6,8.1,49,0.00,,SKC,0.00,VWS V14.01,2013-01-06 13:00:00,
2013-01-06 08:20:00,31.1,15.1,30.18,WNW,290,5.8,7.6,51,0.00,,SKC,0.00,VWS V14.01,2013-01-06 13:20:00,
2013-01-06 08:40:00,32.9,18.5,30.18,WNW,284,0.0,7.6,55,0.00,,SKC,0.00,VWS V14.01,2013-01-06 13:40:00,
2013-01-06 09:00:00,33.6,18.8,30.18,WNW,285,0.0,4.0,54,0.00,,SKC,0.00,VWS V14.01,2013-01-06 14:00:00,
2013-01-06 09:20:00,35.2,21.1,30.18,WNW,283,2.7,6.3,56,0.00,,SKC,0.00,VWS V14.01,2013-01-06 14:20:00,
2013-01-06 09:40:00,36.9,21.3,30.18,WNW,283,0.0,4.9,53,0.00,,SKC,0.00,VWS V14.01,2013-01-06 14:40:00,
2013-01-06 10:00:00,38.5,21.0,30.18,WNW,283,2.7,4.9,49,0.00,,SKC,0.00,VWS V14.01,2013-01-06 15:00:00,
2013-01-06 10:20:00,41.9,19.9,30.21,WNW,293,2.7,5.8,41,0.00,,SKC,0.00,VWS V14.01,2013-01-06 15:20:00,
2013-01-06 10:40:00,42.1,14.4,30.21,WNW,284,5.4,8.1,32,0.00,,SKC,0.00,VWS V14.01,2013-01-06 15:40:00,
2013-01-06 11:00:00,41.2,11.4,30.21,West,276,3.6,5.4,29,0.00,,SKC,0.00,VWS V14.01,2013-01-06 16:00:00,
2013-01-06 11:20:00,41.5,11.7,30.18,West,276,4.0,6.7,29,0.00,,SKC,0.00,VWS V14.01,2013-01-06 16:20:00,
2013-01-06 11:40:00,42.3,11.5,30.18,NNW,328,3.6,9.2,28,0.00,,SKC,0.00,VWS V14.01,2013-01-06 16:40:00,
2013-01-06 12:00:00,44.6,8.1,30.18,NW,322,2.7,7.6,22,0.00,,SKC,0.00,VWS V14.01,2013-01-06 17:00:00,
2013-01-06 12:20:00,44.8,8.3,30.15,West,279,7.6,7.6,22,0.00,,SKC,0.00,VWS V14.01,2013-01-06 17:20:00,
2013-01-06 12:40:00,46.6,6.5,30.15,NW,306,4.0,7.6,19,0.00,,SKC,0.00,VWS V14.01,2013-01-06 17:40:00,
2013-01-06 13:00:00,47.3,7.1,30.15,West,272,5.4,8.7,19,0.00,,SKC,0.00,VWS V14.01,2013-01-06 18:00:00,
2013-01-06 13:20:00,48.2,7.9,30.15,NW,319,7.6,7.6,19,0.00,,SKC,0.00,VWS V14.01,2013-01-06 18:20:00,
2013-01-06 13:40:00,47.7,7.4,30.12,NW,324,5.8,8.7,19,0.00,,SKC,0.00,VWS V14.01,2013-01-06 18:40:00,
2013-01-06 14:00:00,46.4,6.4,30.12,WNW,282,7.6,10.1,19,0.00,,SKC,0.00,VWS V14.01,2013-01-06 19:00:00,
2013-01-06 14:20:00,44.1,5.6,30.12,WNW,303,8.7,10.1,20,0.00,,SKC,0.00,VWS V14.01,2013-01-06 19:20:00,
2013-01-06 14:40:00,42.3,5.1,30.12,WNW,289,4.0,9.6,21,0.00,,SKC,0.00,VWS V14.01,2013-01-06 19:40:00,
2013-01-06 15:20:00,39.6,2.9,30.12,West,262,4.9,11.0,21,0.00,,SKC,0.00,VWS V14.01,2013-01-06 20:20:00,
2013-01-06 15:40:00,38.1,4.5,30.15,WSW,253,4.9,10.1,24,0.00,,SKC,0.00,VWS V14.01,2013-01-06 20:40:00,
2013-01-06 16:00:00,37.2,3.8,30.15,West,281,5.8,12.8,24,0.00,,SKC,0.00,VWS V14.01,2013-01-06 21:00:00,
2013-01-06 16:20:00,36.9,3.5,30.15,NNW,338,7.6,15.0,24,0.00,,SKC,0.00,VWS V14.01,2013-01-06 21:20:00,
2013-01-06 16:40:00,36.1,5.4,30.15,West,265,10.5,11.0,27,0.00,,SKC,0.00,VWS V14.01,2013-01-06 21:40:00,
2013-01-06 17:00:00,35.4,4.8,30.15,WNW,286,4.0,11.0,27,0.00,,SKC,0.00,VWS V14.01,2013-01-06 22:00:00,
2013-01-06 17:20:00,34.0,3.5,30.15,WNW,288,5.4,8.1,27,0.00,,SKC,0.00,VWS V14.01,2013-01-06 22:20:00,
2013-01-06 17:40:00,33.1,5.0,30.15,WNW,285,3.6,5.4,30,0.00,,SKC,0.00,VWS V14.01,2013-01-06 22:40:00,
2013-01-06 18:00:00,32.5,5.3,30.15,WNW,285,8.1,8.7,31,0.00,,SKC,0.00,VWS V14.01,2013-01-06 23:00:00,
2013-01-06 18:20:00,32.9,6.3,30.15,NNW,327,3.1,10.1,32,0.00,,SKC,0.00,VWS V14.01,2013-01-06 23:20:00,
2013-01-06 18:40:00,33.6,7.6,30.15,WNW,301,6.3,8.7,33,0.00,,SKC,0.00,VWS V14.01,2013-01-06 23:40:00,
2013-01-06 19:00:00,34.3,6.9,30.15,West,273,16.8,16.8,31,0.00,,SKC,0.00,VWS V14.01,2013-01-07 00:00:00,
2013-01-06 19:20:00,34.5,6.3,30.18,West,276,7.6,16.8,30,0.00,,SKC,0.00,VWS V14.01,2013-01-07 00:20:00,
2013-01-06 19:40:00,33.3,5.9,30.18,West,266,4.0,8.7,31,0.00,,SKC,0.00,VWS V14.01,2013-01-07 00:40:00,
2013-01-06 20:00:00,32.7,5.4,30.15,WNW,291,5.8,9.2,31,0.00,,SKC,0.00,VWS V14.01,2013-01-07 01:00:00,
2013-01-06 20:20:00,32.9,5.6,30.18,WNW,294,12.8,12.8,31,0.00,,SKC,0.00,VWS V14.01,2013-01-07 01:20:00,
2013-01-06 20:40:00,32.9,5.6,30.15,WNW,289,0.0,12.8,31,0.00,,SKC,0.00,VWS V14.01,2013-01-07 01:40:00,
2013-01-06 21:00:00,32.5,5.3,30.18,WNW,287,3.1,6.3,31,0.00,,SKC,0.00,VWS V14.01,2013-01-07 02:00:00,
2013-01-06 21:20:00,32.9,5.6,30.18,WSW,243,7.2,7.6,31,0.00,,SKC,0.00,VWS V14.01,2013-01-07 02:20:00,
2013-01-06 21:40:00,34.2,6.7,30.18,WSW,247,4.0,11.4,31,0.00,,SKC,0.00,VWS V14.01,2013-01-07 02:40:00,
2013-01-06 22:00:00,34.7,6.4,30.18,NW,314,8.7,8.7,30,0.00,,SKC,0.00,VWS V14.01,2013-01-07 03:00:00,
2013-01-06 22:20:00,35.1,6.8,30.21,West,274,9.2,9.2,30,0.00,,SKC,0.00,VWS V14.01,2013-01-07 03:20:00,
2013-01-06 22:40:00,35.4,4.8,30.18,West,267,6.3,11.0,27,0.00,,SKC,0.00,VWS V14.01,2013-01-07 03:40:00,
2013-01-06 23:00:00,35.4,4.8,30.21,NW,323,8.1,12.8,27,0.00,,SKC,0.00,VWS V14.01,2013-01-07 04:00:00,
2013-01-06 23:20:00,35.2,4.6,30.18,WNW,295,4.0,13.2,27,0.00,,SKC,0.00,VWS V14.01,2013-01-07 04:20:00,
2013-01-06 23:40:00,34.5,6.3,30.18,West,272,5.4,13.2,30,0.00,,SKC,0.00,VWS V14.01,2013-01-07 04:40:00,